createdAt,value
2023-08-18T00:00:12.871Z,57.44
2023-08-18T00:02:41.310Z,57.13
2023-08-18T00:05:08.841Z,57.60
2023-08-18T00:07:35.737Z,57.49
2023-08-18T00:10:04.118Z,56.97
2023-08-18T00:12:31.574Z,56.90
2023-08-18T00:14:58.600Z,57.36
2023-08-18T00:17:25.323Z,57.57
2023-08-18T00:19:52.258Z,57.26
2023-08-18T00:22:18.902Z,57.97
2023-08-18T00:24:46.400Z,57.29
2023-08-18T00:27:13.035Z,57.33
2023-08-18T00:29:40.175Z,57.17
2023-08-18T00:32:07.259Z,56.78
2023-08-18T00:34:33.931Z,56.37
2023-08-18T00:37:01.165Z,56.17
2023-08-18T00:39:27.778Z,56.00
2023-08-18T00:41:54.699Z,56.62
2023-08-18T00:44:21.310Z,57.05
2023-08-18T00:46:48.264Z,57.47
2023-08-18T00:49:17.404Z,57.07
2023-08-18T00:51:46.686Z,57.06
2023-08-18T00:54:14.618Z,57.61
2023-08-18T00:56:43.742Z,57.54
2023-08-18T00:59:11.635Z,57.47
2023-08-18T01:01:38.546Z,56.62
2023-08-18T01:04:06.116Z,56.35
2023-08-18T01:06:33.866Z,56.09
2023-08-18T01:09:01.604Z,56.04
2023-08-18T01:11:44.165Z,56.02
2023-08-18T01:14:42.379Z,55.86
2023-08-18T01:17:18.629Z,55.79
2023-08-18T01:19:46.707Z,55.44
2023-08-18T01:22:17.936Z,55.40
2023-08-18T01:24:45.629Z,55.25
2023-08-18T01:27:13.671Z,55.25
2023-08-18T01:29:41.052Z,55.11
2023-08-18T01:32:08.943Z,55.24
2023-08-18T01:34:41.848Z,55.54
2023-08-18T01:37:10.081Z,55.56
2023-08-18T01:39:38.571Z,55.47
2023-08-18T01:42:05.657Z,55.84
2023-08-18T01:44:32.331Z,55.72
2023-08-18T01:46:59.946Z,55.97
2023-08-18T01:49:27.189Z,55.92
2023-08-18T01:51:53.967Z,56.28
2023-08-18T01:54:21.172Z,55.97
2023-08-18T01:56:47.906Z,56.03
2023-08-18T01:59:15.691Z,56.17
2023-08-18T02:01:42.663Z,56.00
2023-08-18T02:04:09.476Z,56.32
2023-08-18T02:06:36.652Z,56.52
2023-08-18T02:09:04.589Z,57.90
2023-08-18T02:11:32.896Z,59.45
2023-08-18T02:13:59.598Z,61.06
2023-08-18T02:16:26.351Z,60.12
2023-08-18T02:18:53.421Z,60.38
2023-08-18T02:21:20.024Z,60.52
2023-08-18T02:23:46.615Z,60.77
2023-08-18T02:26:14.167Z,61.15
2023-08-18T02:28:41.094Z,60.93
2023-08-18T02:31:09.002Z,60.32
2023-08-18T02:33:36.110Z,59.50
2023-08-18T02:36:03.187Z,59.32
2023-08-18T02:38:31.415Z,59.54
2023-08-18T02:40:58.153Z,60.03
2023-08-18T02:43:25.298Z,60.35
2023-08-18T02:46:02.118Z,60.77
2023-08-18T02:48:30.231Z,61.33
2023-08-18T02:51:07.732Z,61.19
2023-08-18T02:53:35.012Z,61.35
2023-08-18T02:56:02.371Z,61.01
2023-08-18T02:58:30.748Z,60.45
2023-08-18T03:01:02.571Z,60.24
2023-08-18T03:03:29.707Z,61.17
2023-08-18T03:06:03.945Z,62.37
2023-08-18T03:08:30.860Z,61.72
2023-08-18T03:10:59.614Z,62.30
2023-08-18T03:13:28.328Z,60.76
2023-08-18T03:15:55.554Z,60.55
2023-08-18T03:18:22.256Z,60.11
2023-08-18T03:20:50.382Z,61.58
2023-08-18T03:23:19.299Z,62.91
2023-08-18T03:25:46.388Z,62.92
2023-08-18T03:28:13.095Z,62.94
2023-08-18T03:30:41.111Z,62.13
2023-08-18T03:33:08.607Z,61.98
2023-08-18T03:35:39.617Z,61.23
2023-08-18T03:38:06.422Z,60.35
2023-08-18T03:40:33.330Z,59.96
2023-08-18T03:43:00.001Z,60.84
2023-08-18T03:45:29.062Z,62.10
2023-08-18T03:47:56.155Z,62.19
2023-08-18T03:50:23.223Z,63.25
2023-08-18T03:52:50.008Z,64.17
2023-08-18T03:55:17.670Z,64.43
2023-08-18T03:57:44.273Z,64.95
2023-08-18T04:00:12.617Z,66.19
2023-08-18T04:02:44.080Z,65.47
2023-08-18T04:05:15.311Z,66.64
2023-08-18T04:07:41.955Z,65.94
2023-08-18T04:10:08.927Z,65.86
2023-08-18T04:12:35.659Z,65.76
2023-08-18T04:15:02.723Z,65.51
2023-08-18T04:17:30.092Z,65.32
2023-08-18T04:19:58.839Z,64.28
2023-08-18T04:22:25.618Z,64.60
2023-08-18T04:24:52.388Z,65.05
2023-08-18T04:27:19.006Z,64.89
2023-08-18T04:29:45.582Z,63.45
2023-08-18T04:32:12.976Z,64.01
2023-08-18T04:34:40.938Z,63.96
2023-08-18T04:37:07.661Z,64.22
2023-08-18T04:39:34.513Z,64.68
2023-08-18T04:42:01.584Z,63.34
2023-08-18T04:44:31.402Z,64.45
2023-08-18T04:46:58.142Z,64.58
2023-08-18T04:49:25.232Z,65.08
2023-08-18T04:51:51.840Z,64.91
2023-08-18T04:54:19.667Z,65.27
2023-08-18T04:56:47.566Z,65.04
2023-08-18T04:59:15.681Z,64.78
2023-08-18T05:01:43.813Z,65.18
2023-08-18T05:04:10.454Z,65.59
2023-08-18T05:06:37.228Z,67.17
2023-08-18T05:09:06.471Z,67.03
2023-08-18T05:11:33.305Z,67.50
2023-08-18T05:13:59.908Z,66.61
2023-08-18T05:16:26.615Z,68.76
2023-08-18T05:18:56.456Z,66.80
2023-08-18T05:21:23.844Z,66.98
2023-08-18T05:23:50.983Z,66.87
2023-08-18T05:26:18.042Z,67.98
2023-08-18T05:28:45.496Z,67.80
2023-08-18T05:31:12.256Z,68.81
2023-08-18T05:33:38.968Z,68.03
2023-08-18T05:36:06.846Z,69.30
2023-08-18T05:38:33.942Z,70.16
2023-08-18T05:41:11.396Z,69.25
2023-08-18T05:43:40.142Z,69.36
2023-08-18T05:46:07.688Z,69.55
2023-08-18T05:48:34.478Z,67.49
2023-08-18T05:51:01.884Z,67.68
2023-08-18T05:53:29.156Z,67.37
2023-08-18T05:55:55.752Z,67.85
2023-08-18T05:58:22.435Z,66.77
2023-08-18T06:00:50.887Z,66.26
2023-08-18T06:03:21.060Z,66.20
2023-08-18T06:05:51.332Z,66.84
2023-08-18T06:08:18.112Z,67.02
2023-08-18T06:10:45.133Z,66.85
2023-08-18T06:13:12.261Z,65.99
2023-08-18T06:15:38.881Z,64.58
2023-08-18T06:18:05.962Z,63.14
2023-08-18T06:20:32.639Z,63.14
2023-08-18T06:22:59.650Z,62.34
2023-08-18T06:25:26.301Z,62.90
2023-08-18T06:27:53.050Z,62.15
2023-08-18T06:30:20.086Z,62.42
2023-08-18T06:32:47.170Z,61.31
2023-08-18T06:35:14.412Z,61.61
2023-08-18T06:37:41.069Z,61.81
2023-08-18T06:40:08.805Z,60.52
2023-08-18T06:42:35.761Z,61.03
2023-08-18T06:45:04.666Z,61.04
2023-08-18T06:47:32.502Z,61.54
2023-08-18T06:50:01.080Z,60.08
2023-08-18T06:52:29.685Z,60.11
2023-08-18T06:54:56.420Z,61.61
2023-08-18T06:57:23.879Z,61.22
2023-08-18T06:59:51.019Z,60.55
2023-08-18T07:02:18.156Z,60.76
2023-08-18T07:04:44.948Z,60.54
2023-08-18T07:07:11.979Z,59.94
2023-08-18T07:09:38.838Z,59.60
2023-08-18T07:12:05.894Z,58.98
2023-08-18T07:14:32.565Z,57.27
2023-08-18T07:17:00.831Z,57.77
2023-08-18T07:19:27.527Z,55.64
2023-08-18T07:21:54.218Z,55.86
2023-08-18T07:24:20.813Z,54.62
2023-08-18T07:26:47.764Z,53.34
2023-08-18T07:29:14.326Z,51.80
2023-08-18T07:31:41.001Z,51.58
2023-08-18T07:34:07.975Z,52.65
2023-08-18T07:36:34.891Z,50.05
2023-08-18T07:39:01.834Z,50.97
2023-08-18T07:41:30.070Z,48.67
2023-08-18T07:43:56.775Z,47.38
2023-08-18T07:46:24.324Z,46.26
2023-08-18T07:48:51.065Z,44.98
2023-08-18T07:51:18.689Z,44.70
2023-08-18T07:53:45.829Z,42.89
2023-08-18T07:56:13.051Z,41.41
2023-08-18T07:58:40.274Z,41.30
2023-08-18T08:01:07.192Z,40.86
2023-08-18T08:03:34.021Z,41.82
2023-08-18T08:06:00.767Z,43.04
2023-08-18T08:08:27.455Z,42.59
2023-08-18T08:10:54.533Z,42.01
2023-08-18T08:13:21.906Z,41.90
2023-08-18T08:15:49.060Z,41.75
2023-08-18T08:18:18.273Z,42.38
2023-08-18T08:20:45.660Z,41.74
2023-08-18T08:23:12.346Z,42.75
2023-08-18T08:25:41.366Z,42.28
2023-08-18T08:28:08.031Z,41.94
2023-08-18T08:30:36.597Z,41.69
2023-08-18T08:33:07.715Z,42.20
2023-08-18T08:35:35.945Z,42.54
2023-08-18T08:38:03.146Z,42.57
2023-08-18T08:40:29.850Z,42.67
2023-08-18T08:45:28.702Z,42.89
2023-08-18T08:47:58.071Z,43.79
2023-08-18T08:50:31.296Z,43.48
2023-08-18T08:53:01.607Z,44.55
2023-08-18T08:55:33.487Z,43.91
2023-08-18T08:58:00.941Z,42.49
2023-08-18T09:00:28.566Z,40.73
2023-08-18T09:03:01.465Z,42.04
2023-08-18T09:05:30.837Z,40.38
2023-08-18T09:07:57.957Z,41.83
2023-08-18T09:10:26.911Z,42.60
2023-08-18T09:12:54.112Z,43.82
2023-08-18T09:15:23.822Z,44.62
2023-08-18T09:17:51.844Z,45.18
2023-08-18T09:20:19.178Z,44.12
2023-08-18T09:22:46.332Z,45.38
2023-08-18T09:25:14.625Z,46.32
2023-08-18T09:27:41.365Z,45.67
2023-08-18T09:30:08.536Z,47.18
2023-08-18T09:32:39.279Z,46.38
2023-08-18T09:35:11.898Z,47.14
2023-08-18T09:37:39.742Z,46.94
2023-08-18T09:40:07.168Z,47.49
2023-08-18T09:42:34.337Z,48.33
2023-08-18T09:45:01.652Z,46.93
2023-08-18T09:47:30.941Z,47.51
2023-08-18T09:50:00.906Z,47.73
2023-08-18T09:52:30.974Z,48.36
2023-08-18T09:55:11.350Z,47.90
2023-08-18T09:57:55.449Z,46.41
2023-08-18T10:00:23.813Z,45.61
2023-08-18T10:02:53.974Z,46.65
2023-08-18T10:05:23.254Z,47.93
2023-08-18T10:07:52.561Z,45.71
2023-08-18T10:10:19.420Z,45.92
2023-08-18T10:12:46.367Z,46.72
2023-08-18T10:15:14.995Z,47.33
2023-08-18T10:17:43.031Z,46.26
2023-08-18T10:20:13.225Z,45.05
2023-08-18T10:22:42.986Z,44.68
2023-08-18T10:25:10.580Z,44.71
2023-08-18T10:27:40.272Z,44.70
2023-08-18T10:30:10.331Z,45.37
2023-08-18T10:32:37.966Z,44.70
2023-08-18T10:35:24.074Z,43.09
2023-08-18T10:38:05.956Z,42.43
2023-08-18T10:40:37.500Z,42.79
2023-08-18T10:43:07.095Z,42.94
2023-08-18T10:45:34.495Z,45.20
2023-08-18T10:48:07.272Z,48.00
2023-08-18T10:50:40.828Z,45.70
2023-08-18T10:53:09.213Z,46.82
2023-08-18T10:55:35.963Z,47.60
2023-08-18T10:58:03.684Z,48.37
2023-08-18T11:00:34.969Z,46.96
2023-08-18T11:03:02.249Z,45.76
2023-08-18T11:05:35.206Z,45.57
2023-08-18T11:08:04.960Z,45.31
2023-08-18T11:10:33.536Z,46.94
2023-08-18T11:13:00.785Z,46.76
2023-08-18T11:15:27.708Z,46.81
2023-08-18T11:17:54.881Z,47.00
2023-08-18T11:20:22.756Z,47.31
2023-08-18T11:22:55.056Z,45.33
2023-08-18T11:25:24.196Z,46.58
2023-08-18T11:27:53.899Z,47.19
2023-08-18T11:30:22.126Z,47.87
2023-08-18T11:32:50.483Z,47.66
2023-08-18T11:35:19.929Z,47.04
2023-08-18T11:37:49.114Z,48.21
2023-08-18T11:40:18.919Z,47.65
2023-08-18T11:42:47.752Z,46.18
2023-08-18T11:45:20.585Z,44.42
2023-08-18T11:47:49.522Z,47.23
2023-08-18T11:50:22.462Z,46.28
2023-08-18T11:52:53.525Z,45.57
2023-08-18T11:55:51.428Z,46.25
2023-08-18T11:58:22.910Z,46.87
2023-08-18T12:00:49.963Z,46.72
2023-08-18T12:03:23.347Z,46.55
2023-08-18T12:05:51.891Z,45.32
2023-08-18T12:08:18.674Z,45.98
2023-08-18T12:10:49.157Z,45.96
2023-08-18T12:16:04.810Z,45.65
2023-08-18T12:18:31.432Z,45.17
2023-08-18T12:20:58.042Z,47.31
2023-08-18T12:23:24.661Z,46.56
2023-08-18T12:25:52.051Z,46.60
2023-08-18T12:28:19.155Z,46.75
2023-08-18T12:30:45.812Z,49.06
2023-08-18T12:33:13.380Z,48.77
2023-08-18T12:35:39.956Z,48.77
2023-08-18T12:38:07.356Z,47.99
2023-08-18T12:40:33.953Z,49.33
2023-08-18T12:43:03.491Z,49.63
2023-08-18T12:45:30.306Z,46.70
2023-08-18T12:47:57.434Z,46.94
2023-08-18T12:50:24.499Z,47.16
2023-08-18T12:52:51.389Z,46.95
2023-08-18T12:55:18.012Z,47.97
2023-08-18T12:57:46.212Z,47.71
2023-08-18T13:00:13.408Z,48.09
2023-08-18T13:02:40.092Z,47.98
2023-08-18T13:05:07.565Z,47.20
2023-08-18T13:07:34.141Z,46.61
2023-08-18T13:10:01.870Z,47.57
2023-08-18T13:12:28.523Z,48.31
2023-08-18T13:14:55.138Z,47.48
2023-08-18T13:17:22.288Z,48.23
2023-08-18T13:19:50.164Z,47.72
2023-08-18T13:22:23.810Z,47.54
2023-08-18T13:24:53.741Z,47.56
2023-08-18T13:27:24.641Z,48.86
2023-08-18T13:29:51.935Z,48.85
2023-08-18T13:32:18.791Z,48.26
2023-08-18T13:34:46.430Z,46.82
2023-08-18T13:37:13.420Z,48.10
2023-08-18T13:39:40.020Z,48.55
2023-08-18T13:42:06.792Z,48.15
2023-08-18T13:44:33.379Z,47.85
2023-08-18T13:46:59.940Z,47.81
2023-08-18T13:49:28.300Z,47.22
2023-08-18T13:51:55.901Z,48.09
2023-08-18T13:54:22.766Z,47.65
2023-08-18T13:56:49.384Z,47.45
2023-08-18T13:59:16.829Z,47.25
2023-08-18T14:01:43.898Z,48.11
2023-08-18T14:04:10.568Z,49.13
2023-08-18T14:06:37.607Z,48.01
2023-08-18T14:09:05.171Z,47.88
2023-08-18T14:11:33.534Z,48.27
2023-08-18T14:14:00.304Z,48.55
2023-08-18T14:16:28.516Z,48.38
2023-08-18T14:18:58.287Z,49.50
2023-08-18T14:21:28.348Z,47.98
2023-08-18T14:23:57.904Z,48.84
2023-08-18T14:26:25.158Z,49.32
2023-08-18T14:28:51.822Z,49.49
2023-08-18T14:31:19.609Z,50.06
2023-08-18T14:33:47.673Z,49.98
2023-08-18T14:36:16.349Z,50.54
2023-08-18T14:38:44.121Z,49.14
2023-08-18T14:41:11.248Z,49.23
2023-08-18T14:43:38.308Z,49.44
2023-08-18T14:46:09.007Z,48.48
2023-08-18T14:48:36.072Z,48.61
2023-08-18T14:51:06.492Z,47.92
2023-08-18T14:53:33.381Z,48.39
2023-08-18T14:56:00.882Z,47.26
2023-08-18T14:58:28.369Z,47.21
2023-08-18T15:00:55.598Z,48.25
2023-08-18T15:03:22.878Z,48.71
2023-08-18T15:05:50.746Z,47.65
2023-08-18T15:08:17.612Z,48.76
2023-08-18T15:10:44.211Z,48.20
2023-08-18T15:13:10.820Z,49.64
2023-08-18T15:15:38.215Z,48.19
2023-08-18T15:18:05.757Z,49.38
2023-08-18T15:20:32.547Z,49.69
2023-08-18T15:22:59.771Z,49.90
2023-08-18T15:25:26.686Z,49.14
2023-08-18T15:27:53.294Z,50.49
2023-08-18T15:30:20.007Z,49.57
2023-08-18T15:32:46.583Z,49.01
2023-08-18T15:35:13.467Z,47.25
2023-08-18T15:37:40.640Z,48.96
2023-08-18T15:40:07.969Z,47.56
2023-08-18T15:42:34.852Z,47.56
2023-08-18T15:45:01.991Z,48.49
2023-08-18T15:47:29.059Z,48.19
2023-08-18T15:49:55.963Z,48.34
2023-08-18T15:52:22.643Z,49.49
2023-08-18T15:54:50.783Z,48.90
2023-08-18T15:57:17.530Z,48.05
2023-08-18T15:59:44.140Z,48.59
2023-08-18T16:02:10.734Z,47.98
2023-08-18T16:04:39.969Z,47.47
2023-08-18T16:07:07.095Z,47.54
2023-08-18T16:09:34.108Z,47.08
2023-08-18T16:12:00.977Z,46.47
2023-08-18T16:15:09.075Z,45.64
2023-08-18T16:17:15.069Z,47.04
2023-08-18T16:19:42.313Z,47.95
2023-08-18T16:22:09.209Z,49.58
2023-08-18T16:24:37.280Z,48.32
2023-08-18T16:27:04.687Z,47.49
2023-08-18T16:29:32.645Z,48.89
2023-08-18T16:32:00.242Z,49.25
2023-08-18T16:34:28.128Z,48.68
2023-08-18T16:36:56.664Z,48.57
2023-08-18T16:39:23.478Z,48.70
2023-08-18T16:41:50.147Z,49.34
2023-08-18T16:44:16.857Z,48.44
2023-08-18T16:46:44.078Z,49.18
2023-08-18T16:49:11.363Z,49.49
2023-08-18T16:51:38.019Z,49.41
2023-08-18T16:54:06.821Z,49.73
2023-08-18T16:56:33.430Z,49.57
2023-08-18T16:59:00.047Z,50.76
2023-08-18T17:01:26.729Z,50.20
2023-08-18T17:03:53.895Z,49.70
2023-08-18T17:06:20.508Z,49.87
2023-08-18T17:08:47.066Z,50.43
2023-08-18T17:11:13.646Z,50.19
2023-08-18T17:13:40.300Z,50.52
2023-08-18T17:16:06.902Z,49.74
2023-08-18T17:18:33.533Z,49.34
2023-08-18T17:21:00.112Z,49.02
2023-08-18T17:23:26.796Z,49.00
2023-08-18T17:25:54.505Z,50.30
2023-08-18T17:28:21.289Z,51.05
2023-08-18T17:30:48.315Z,49.83
2023-08-18T17:33:15.397Z,48.77
2023-08-18T17:35:45.508Z,49.95
2023-08-18T17:38:12.471Z,49.41
2023-08-18T17:40:40.098Z,49.29
2023-08-18T17:43:06.801Z,48.79
2023-08-18T17:45:35.929Z,49.09
2023-08-18T17:48:02.705Z,50.33
2023-08-18T17:50:29.377Z,50.07
2023-08-18T17:52:57.726Z,49.57
2023-08-18T17:55:24.956Z,49.52
2023-08-18T17:57:51.769Z,51.58
2023-08-18T18:00:18.766Z,51.74
2023-08-18T18:02:45.397Z,51.96
2023-08-18T18:05:12.530Z,52.30
2023-08-18T18:07:39.340Z,51.91
2023-08-18T18:10:06.945Z,51.02
2023-08-18T18:12:33.839Z,51.54
2023-08-18T18:15:01.002Z,51.24
2023-08-18T18:17:28.645Z,52.00
2023-08-18T18:19:55.972Z,52.45
2023-08-18T18:22:24.176Z,51.77
2023-08-18T18:24:50.933Z,51.36
2023-08-18T18:27:17.494Z,51.38
2023-08-18T18:29:44.412Z,52.41
2023-08-18T18:32:11.359Z,52.28
2023-08-18T18:34:38.336Z,53.21
2023-08-18T18:37:06.862Z,52.62
2023-08-18T18:39:34.668Z,53.07
2023-08-18T18:42:01.911Z,50.93
2023-08-18T18:44:29.016Z,50.49
2023-08-18T18:46:55.588Z,49.85
2023-08-18T18:49:22.692Z,49.21
2023-08-18T18:51:49.815Z,48.66
2023-08-18T18:54:17.090Z,48.86
2023-08-18T18:56:44.624Z,49.21
2023-08-18T18:59:11.440Z,49.35
2023-08-18T19:01:38.730Z,49.47
2023-08-18T19:04:06.204Z,49.19
2023-08-18T19:06:32.848Z,48.65
2023-08-18T19:08:59.426Z,49.22
2023-08-18T19:11:26.075Z,49.15
2023-08-18T19:13:52.681Z,49.34
2023-08-18T19:16:22.220Z,48.62
2023-08-18T19:18:48.909Z,48.54
2023-08-18T19:21:15.498Z,48.56
2023-08-18T19:23:42.076Z,48.35
2023-08-18T19:26:08.806Z,48.31
2023-08-18T19:28:35.713Z,48.30
2023-08-18T19:31:07.467Z,47.92
2023-08-18T19:33:34.481Z,48.44
2023-08-18T19:36:01.489Z,48.01
2023-08-18T19:38:28.264Z,47.37
2023-08-18T19:40:55.417Z,48.46
2023-08-18T19:43:22.185Z,48.21
2023-08-18T19:45:55.898Z,48.09
2023-08-18T19:48:22.501Z,48.56
2023-08-18T19:50:49.106Z,48.28
2023-08-18T19:53:15.769Z,48.84
2023-08-18T19:55:42.365Z,48.85
2023-08-18T19:58:09.124Z,48.66
2023-08-18T20:00:35.697Z,48.96
2023-08-18T20:03:04.120Z,49.40
2023-08-18T20:05:30.853Z,49.68
2023-08-18T20:07:58.440Z,49.64
2023-08-18T20:10:25.462Z,49.38
2023-08-18T20:12:52.378Z,49.59
2023-08-18T20:15:20.919Z,50.04
2023-08-18T20:17:47.896Z,49.74
2023-08-18T20:20:14.866Z,50.12
2023-08-18T20:22:42.612Z,49.52
2023-08-18T20:25:10.681Z,49.64
2023-08-18T20:27:38.418Z,49.94
2023-08-18T20:30:06.092Z,49.88
2023-08-18T20:32:38.582Z,49.91
2023-08-18T20:35:06.153Z,49.79
2023-08-18T20:37:32.988Z,50.90
2023-08-18T20:39:59.782Z,50.75
2023-08-18T20:42:26.601Z,50.21
2023-08-18T20:44:53.541Z,50.87
2023-08-18T20:47:20.250Z,50.62
2023-08-18T20:49:46.817Z,51.40
2023-08-18T20:52:13.985Z,51.53
2023-08-18T20:54:40.629Z,51.85
2023-08-18T20:57:07.298Z,51.66
2023-08-18T20:59:34.148Z,52.14
2023-08-18T21:02:01.049Z,51.95
2023-08-18T21:04:28.298Z,51.84
2023-08-18T21:06:55.341Z,52.13
2023-08-18T21:09:24.248Z,51.91
2023-08-18T21:11:51.794Z,51.51
2023-08-18T21:14:18.535Z,51.84
2023-08-18T21:16:45.531Z,52.06
2023-08-18T21:19:12.279Z,52.27
2023-08-18T21:21:39.050Z,52.38
2023-08-18T21:24:07.249Z,52.47
2023-08-18T21:26:34.390Z,53.25
2023-08-18T21:29:01.081Z,53.30
2023-08-18T21:31:27.749Z,53.58
2023-08-18T21:33:55.004Z,53.72
2023-08-18T21:36:24.952Z,53.97
2023-08-18T21:38:52.894Z,54.63
2023-08-18T21:41:19.807Z,54.44
2023-08-18T21:43:46.711Z,54.34
2023-08-18T21:46:13.503Z,54.56
2023-08-18T21:48:41.710Z,54.57
2023-08-18T21:51:09.204Z,53.80
2023-08-18T21:53:36.273Z,54.24
2023-08-18T21:56:03.738Z,54.59
2023-08-18T21:58:31.197Z,54.49
2023-08-18T22:00:58.625Z,54.56
2023-08-18T22:03:25.420Z,54.31
2023-08-18T22:05:53.174Z,54.35
2023-08-18T22:08:20.076Z,54.50
2023-08-18T22:10:46.813Z,55.07
2023-08-18T22:13:13.381Z,55.50
2023-08-18T22:15:40.000Z,55.16
2023-08-18T22:18:07.716Z,55.43
2023-08-18T22:20:34.536Z,55.29
2023-08-18T22:23:01.546Z,54.79
2023-08-18T22:25:28.144Z,54.63
2023-08-18T22:27:55.665Z,54.41
2023-08-18T22:30:22.377Z,54.45
2023-08-18T22:32:49.782Z,53.76
2023-08-18T22:35:16.555Z,53.70
2023-08-18T22:37:44.147Z,53.64
2023-08-18T22:40:11.629Z,53.42
2023-08-18T22:42:39.541Z,52.85
2023-08-18T22:45:11.680Z,53.24
2023-08-18T22:47:40.080Z,53.60
2023-08-18T22:50:07.840Z,52.63
2023-08-18T22:52:36.123Z,52.74
2023-08-18T22:55:04.442Z,52.46
2023-08-18T22:57:31.559Z,52.50
2023-08-18T22:59:59.275Z,52.38
2023-08-18T23:02:26.892Z,52.54
2023-08-18T23:04:53.735Z,52.23
2023-08-18T23:07:20.356Z,52.56
2023-08-18T23:09:47.118Z,52.59
2023-08-18T23:12:15.569Z,53.05
2023-08-18T23:14:42.948Z,53.09
2023-08-18T23:17:09.640Z,52.66
2023-08-18T23:19:36.679Z,52.54
2023-08-18T23:22:05.015Z,52.34
2023-08-18T23:24:32.549Z,52.81
2023-08-18T23:26:59.284Z,52.58
2023-08-18T23:29:26.456Z,52.61
2023-08-18T23:31:53.177Z,52.86
2023-08-18T23:34:20.784Z,52.59
2023-08-18T23:36:47.986Z,52.90
2023-08-18T23:39:14.640Z,52.74
2023-08-18T23:41:41.290Z,52.70
2023-08-18T23:44:08.045Z,52.82
2023-08-18T23:46:34.782Z,52.68
2023-08-18T23:49:01.427Z,52.44
2023-08-18T23:51:28.089Z,52.53
2023-08-18T23:53:55.448Z,52.73
2023-08-18T23:56:22.262Z,52.73
2023-08-18T23:58:48.897Z,52.77
